Time;durP1;ratioP1;P1;durP2;ratioP2;P2;SDS_P1;SDS_P2;PMS_P1;PMS_P2;Temp;Humidity;BMP_temperature;BMP_pressure;BME280_temperature;BME280_humidity;BME280_pressure;Samples;Min_cycle;Max_cycle;Signal;HPM_P1;HPM_P2
2022/10/22 00:00:32;;;;;;;10.63;1.42;;;16.60;94.70;;;;;;5096622;28;20056;-80
2022/10/22 00:02:57;;;;;;;7.50;1.77;;;16.60;94.70;;;;;;5096941;28;20024;-80
2022/10/22 00:05:23;;;;;;;9.32;1.38;;;16.60;94.60;;;;;;5097866;28;20104;-80
2022/10/22 00:07:49;;;;;;;9.85;1.70;;;16.60;94.60;;;;;;5098054;28;20024;-80
2022/10/22 00:10:16;;;;;;;11.00;1.52;;;16.50;94.60;;;;;;5096404;28;20400;-80
2022/10/22 00:12:42;;;;;;;9.80;1.52;;;16.50;94.70;;;;;;5096466;28;20016;-79
2022/10/22 00:15:09;;;;;;;10.13;1.27;;;16.50;94.80;;;;;;5097069;28;20028;-83
2022/10/22 00:17:35;;;;;;;9.35;1.58;;;16.50;95.00;;;;;;5096537;28;20055;-84
2022/10/22 00:20:01;;;;;;;11.98;2.08;;;16.40;94.80;;;;;;5097489;28;20024;-83
2022/10/22 00:22:27;;;;;;;8.85;1.73;;;16.50;94.90;;;;;;5096216;28;20040;-83
2022/10/22 00:24:52;;;;;;;8.40;1.60;;;16.50;95.00;;;;;;5096187;28;20035;-83
2022/10/22 00:27:18;;;;;;;9.90;1.90;;;16.40;94.90;;;;;;5098039;28;20032;-81
2022/10/22 00:29:44;;;;;;;8.63;1.52;;;16.40;95.10;;;;;;5095997;28;20036;-78
2022/10/22 00:32:09;;;;;;;12.50;1.67;;;16.40;94.80;;;;;;5096087;28;20020;-77
2022/10/22 00:34:35;;;;;;;8.70;1.50;;;16.40;94.80;;;;;;5097439;28;20028;-78
2022/10/22 00:37:01;;;;;;;6.90;1.63;;;16.40;94.90;;;;;;5096187;28;20030;-78
2022/10/22 00:39:27;;;;;;;11.75;1.70;;;16.40;95.10;;;;;;5097197;28;20031;-78
2022/10/22 00:41:54;;;;;;;8.80;1.45;;;16.40;95.10;;;;;;5097478;28;20062;-81
2022/10/22 00:44:58;;;;;;;13.95;2.22;;;16.40;95.30;;;;;;5095954;28;20063;-81
2022/10/22 00:47:26;;;;;;;10.75;1.75;;;16.40;94.90;;;;;;5097314;28;20373;-82
2022/10/22 00:49:53;;;;;;;9.90;1.50;;;16.40;95.60;;;;;;5097607;28;20529;-81
2022/10/22 00:52:20;;;;;;;7.65;1.42;;;16.50;95.30;;;;;;5095806;28;20020;-81
2022/10/22 00:54:45;;;;;;;11.38;2.00;;;16.50;95.30;;;;;;5097406;28;20079;-81
2022/10/22 00:57:11;;;;;;;10.05;1.63;;;16.50;95.20;;;;;;5096058;28;20457;-81
2022/10/22 00:59:38;;;;;;;7.60;1.30;;;16.50;95.40;;;;;;5097032;28;20523;-81
2022/10/22 01:02:04;;;;;;;7.50;1.10;;;16.50;95.40;;;;;;5095967;28;20463;-81
2022/10/22 01:04:29;;;;;;;9.23;1.90;;;16.50;95.40;;;;;;5095944;28;20043;-82
2022/10/22 01:06:55;;;;;;;10.68;1.65;;;16.50;95.30;;;;;;5095678;28;20039;-81
2022/10/22 01:09:42;;;;;;;10.82;1.55;;;16.50;95.40;;;;;;5098866;28;20024;-81
2022/10/22 01:12:29;;;;;;;7.95;1.40;;;16.50;95.00;;;;;;5101110;28;20481;-81
2022/10/22 01:15:27;;;;;;;10.52;1.80;;;16.60;95.30;;;;;;5100673;28;20024;-81
2022/10/22 01:18:24;;;;;;;11.27;1.58;;;16.60;95.00;;;;;;5101100;28;20039;-81
2022/10/22 01:21:03;;;;;;;10.20;1.88;;;16.60;95.20;;;;;;5099530;28;20020;-80
2022/10/22 01:23:56;;;;;;;8.25;1.25;;;16.50;95.20;;;;;;5087853;28;20142;-79
2022/10/22 01:26:39;;;;;;;8.97;1.37;;;16.50;95.00;;;;;;5100760;28;20024;-79
2022/10/22 01:29:23;;;;;;;10.00;1.70;;;16.50;95.10;;;;;;5100656;28;20028;-78
2022/10/22 01:32:07;;;;;;;9.05;1.63;;;16.50;95.20;;;;;;5100796;28;20024;-78
2022/10/22 01:34:33;;;;;;;15.13;1.95;;;16.50;95.40;;;;;;5100711;28;20024;-78
2022/10/22 01:37:01;;;;;;;9.55;1.67;;;16.60;96.00;;;;;;5099589;28;20053;-79
2022/10/22 01:39:29;;;;;;;10.55;1.48;;;16.50;95.60;;;;;;5079101;28;20020;-79
2022/10/22 01:41:56;;;;;;;7.43;1.58;;;16.50;95.60;;;;;;5092153;28;20391;-78
2022/10/22 01:44:33;;;;;;;14.68;1.75;;;16.50;95.60;;;;;;5098921;28;20028;-80
2022/10/22 01:47:22;;;;;;;13.68;1.90;;;16.60;95.50;;;;;;5099209;28;20050;-80
2022/10/22 01:50:10;;;;;;;9.85;1.73;;;16.50;95.70;;;;;;5068343;28;20530;-79
2022/10/22 01:52:58;;;;;;;12.25;2.00;;;16.50;95.50;;;;;;5100442;28;20032;-78
2022/10/22 01:55:42;;;;;;;10.43;1.80;;;16.50;95.50;;;;;;5100306;28;20016;-79
2022/10/22 01:58:23;;;;;;;11.98;1.88;;;16.50;95.50;;;;;;5100154;28;20086;-79
2022/10/22 02:01:09;;;;;;;7.93;1.50;;;16.50;95.70;;;;;;5100364;28;20034;-79
2022/10/22 02:03:53;;;;;;;10.45;1.95;;;16.50;95.60;;;;;;5071203;28;20044;-79
2022/10/22 02:06:22;;;;;;;8.07;1.67;;;16.50;95.90;;;;;;5100297;28;20048;-78
2022/10/22 02:08:49;;;;;;;12.73;1.80;;;16.40;96.00;;;;;;5098563;28;20040;-78
2022/10/22 02:11:15;;;;;;;11.88;1.60;;;16.40;96.10;;;;;;5098761;28;20055;-78
2022/10/22 02:13:48;;;;;;;13.32;1.50;;;16.40;96.30;;;;;;5098538;28;20024;-78
2022/10/22 02:16:20;;;;;;;15.43;1.75;;;16.30;96.20;;;;;;5099780;28;20036;-79
2022/10/22 02:18:50;;;;;;;12.60;1.77;;;16.40;96.20;;;;;;5100122;28;20040;-78
2022/10/22 02:21:16;;;;;;;8.65;1.80;;;16.40;96.20;;;;;;5098307;28;20043;-78
2022/10/22 02:23:43;;;;;;;11.40;1.80;;;16.40;96.20;;;;;;5099939;28;20027;-79
2022/10/22 02:26:19;;;;;;;11.30;1.83;;;16.40;96.10;;;;;;5098477;28;20081;-79
2022/10/22 02:28:55;;;;;;;10.13;1.85;;;16.40;96.10;;;;;;5099515;28;20043;-79
2022/10/22 02:31:26;;;;;;;14.05;1.80;;;16.40;96.10;;;;;;5099495;28;20020;-79
2022/10/22 02:33:55;;;;;;;10.88;1.60;;;16.40;96.10;;;;;;5099932;28;20027;-78
2022/10/22 02:36:22;;;;;;;9.13;1.75;;;16.40;96.20;;;;;;5098384;28;20517;-78
2022/10/22 02:38:50;;;;;;;14.85;1.85;;;16.30;96.10;;;;;;5098301;28;20476;-78
2022/10/22 02:41:17;;;;;;;11.70;1.90;;;16.30;96.00;;;;;;5099682;28;20059;-78
2022/10/22 02:43:47;;;;;;;11.57;1.48;;;16.30;96.20;;;;;;5097927;28;20024;-78
2022/10/22 02:46:13;;;;;;;8.82;1.90;;;16.20;96.10;;;;;;5099075;28;20480;-78
2022/10/22 02:48:39;;;;;;;10.50;1.75;;;16.20;96.40;;;;;;5099422;28;20115;-78
2022/10/22 02:51:05;;;;;;;10.60;1.60;;;16.10;96.30;;;;;;5098078;28;20032;-78
2022/10/22 02:53:30;;;;;;;14.93;2.10;;;16.10;96.20;;;;;;5099377;28;20016;-78
2022/10/22 02:55:56;;;;;;;9.68;1.67;;;16.10;96.30;;;;;;5099336;28;20028;-78
2022/10/22 02:58:22;;;;;;;12.63;1.85;;;16.10;96.30;;;;;;5097659;28;20028;-78
2022/10/22 03:00:48;;;;;;;10.30;1.48;;;16.00;96.30;;;;;;5099082;28;20535;-78
2022/10/22 03:03:13;;;;;;;8.27;1.58;;;16.00;96.30;;;;;;5099232;28;20084;-78
2022/10/22 03:05:39;;;;;;;11.98;2.00;;;16.00;96.40;;;;;;5099163;28;20634;-79
2022/10/22 03:08:05;;;;;;;10.65;1.75;;;15.90;96.50;;;;;;5099161;28;20031;-78
2022/10/22 03:10:31;;;;;;;9.85;1.80;;;15.90;96.40;;;;;;5098070;28;20381;-78
2022/10/22 03:12:57;;;;;;;10.85;1.90;;;15.90;96.50;;;;;;5098742;28;20028;-78
2022/10/22 03:15:23;;;;;;;14.10;1.67;;;15.90;96.50;;;;;;5098752;28;20036;-78
2022/10/22 03:17:48;;;;;;;15.13;1.80;;;15.90;96.50;;;;;;5098830;28;20027;-78
2022/10/22 03:20:14;;;;;;;11.15;1.92;;;15.80;96.50;;;;;;5098908;28;20042;-78
2022/10/22 03:22:42;;;;;;;9.23;1.35;;;15.80;96.60;;;;;;5097176;28;20503;-78
2022/10/22 03:25:12;;;;;;;10.75;1.50;;;15.80;96.60;;;;;;5097583;28;20028;-78
2022/10/22 03:27:40;;;;;;;9.60;1.83;;;15.70;96.60;;;;;;5098630;28;20028;-78
2022/10/22 03:30:06;;;;;;;9.98;1.60;;;15.80;96.80;;;;;;5098435;28;20028;-78
2022/10/22 03:32:32;;;;;;;13.23;1.70;;;15.70;96.60;;;;;;5097129;28;20020;-78
2022/10/22 03:34:58;;;;;;;12.50;1.75;;;15.70;96.80;;;;;;5098839;28;20028;-76
2022/10/22 03:37:25;;;;;;;11.23;1.77;;;15.70;96.90;;;;;;5098467;28;20020;-76
2022/10/22 03:39:51;;;;;;;9.75;1.60;;;15.70;97.00;;;;;;5098269;28;20047;-76
2022/10/22 03:42:17;;;;;;;9.93;1.60;;;15.70;97.00;;;;;;5097005;28;20442;-76
2022/10/22 03:44:43;;;;;;;10.90;1.65;;;15.70;97.00;;;;;;5098074;28;20032;-76
2022/10/22 03:47:09;;;;;;;12.25;1.60;;;15.70;97.10;;;;;;5098463;28;20074;-77
2022/10/22 03:49:34;;;;;;;10.95;1.88;;;15.70;96.90;;;;;;5098195;28;20028;-77
2022/10/22 03:52:12;;;;;;;11.68;1.83;;;15.70;96.90;;;;;;5098244;28;20028;-78
2022/10/22 03:54:38;;;;;;;8.52;1.35;;;15.70;96.70;;;;;;5098243;28;20484;-78
2022/10/22 03:57:05;;;;;;;10.25;2.10;;;15.70;97.00;;;;;;5098073;28;20031;-78
2022/10/22 03:59:35;;;;;;;12.15;1.77;;;15.70;97.00;;;;;;5096793;28;20848;-78
2022/10/22 04:02:01;;;;;;;11.70;1.65;;;15.60;96.80;;;;;;5098162;28;20111;-78
2022/10/22 04:04:28;;;;;;;13.20;1.40;;;15.60;97.00;;;;;;5098073;28;20105;-77
2022/10/22 04:06:53;;;;;;;10.38;1.60;;;15.60;97.00;;;;;;5097806;28;20028;-77
2022/10/22 04:09:19;;;;;;;9.50;1.48;;;15.60;97.00;;;;;;5097982;28;20079;-77
2022/10/22 04:11:44;;;;;;;8.85;1.38;;;15.60;97.00;;;;;;5097792;28;20441;-77
2022/10/22 04:14:13;;;;;;;7.72;1.33;;;15.60;97.20;;;;;;5096620;28;20013;-77
2022/10/22 04:16:40;;;;;;;10.95;2.08;;;15.60;97.10;;;;;;5097447;28;20109;-78
2022/10/22 04:19:06;;;;;;;9.40;1.77;;;15.70;97.30;;;;;;5096750;28;20081;-78
2022/10/22 04:21:32;;;;;;;16.10;2.15;;;15.70;97.10;;;;;;5096111;28;20023;-77
2022/10/22 04:23:58;;;;;;;6.05;1.27;;;15.70;96.90;;;;;;5096619;28;20416;-77
2022/10/22 04:26:24;;;;;;;10.68;1.67;;;15.70;97.10;;;;;;5096256;28;20020;-77
2022/10/22 04:28:50;;;;;;;8.90;1.77;;;15.70;97.20;;;;;;5096268;28;20028;-77
2022/10/22 04:31:19;;;;;;;9.75;1.67;;;15.70;97.00;;;;;;5097378;28;20018;-79
2022/10/22 04:33:45;;;;;;;10.60;1.60;;;15.70;97.10;;;;;;5096523;28;20456;-76
2022/10/22 04:36:17;;;;;;;11.25;1.75;;;15.70;97.00;;;;;;5096314;28;20049;-75
2022/10/22 04:38:46;;;;;;;9.10;1.73;;;15.60;96.90;;;;;;5096207;28;20028;-75
2022/10/22 04:41:17;;;;;;;9.25;1.58;;;15.60;97.10;;;;;;5097144;28;20032;-76
2022/10/22 04:43:44;;;;;;;8.75;1.80;;;15.50;97.10;;;;;;5096712;28;20035;-76
2022/10/22 04:46:11;;;;;;;11.32;1.73;;;15.60;97.30;;;;;;5097208;28;20548;-77
2022/10/22 04:48:40;;;;;;;9.55;1.70;;;15.50;97.10;;;;;;5097365;28;20929;-78
2022/10/22 04:51:08;;;;;;;8.57;1.58;;;15.50;97.20;;;;;;5097461;28;20051;-77
2022/10/22 04:53:39;;;;;;;11.43;1.83;;;15.40;97.30;;;;;;5097320;28;20150;-77
2022/10/22 04:56:15;;;;;;;10.25;1.67;;;15.40;97.40;;;;;;5097363;28;20024;-77
2022/10/22 04:58:42;;;;;;;9.82;1.50;;;15.40;97.30;;;;;;5096990;28;20024;-78
2022/10/22 05:01:13;;;;;;;8.68;1.55;;;15.50;97.50;;;;;;5095953;28;20044;-77
2022/10/22 05:03:39;;;;;;;11.35;1.50;;;15.50;97.50;;;;;;5097036;28;20025;-76
2022/10/22 05:06:05;;;;;;;10.90;1.50;;;15.50;97.30;;;;;;5097374;28;20059;-76
2022/10/22 05:08:31;;;;;;;10.65;1.40;;;15.50;97.50;;;;;;5097060;28;20036;-76
2022/10/22 05:10:56;;;;;;;7.68;1.60;;;15.50;97.50;;;;;;5097291;28;20024;-76
2022/10/22 05:13:22;;;;;;;8.27;1.55;;;15.50;97.50;;;;;;5096981;28;20043;-76
2022/10/22 05:15:48;;;;;;;10.27;1.63;;;15.60;97.40;;;;;;5095689;28;20531;-76
2022/10/22 05:18:13;;;;;;;5.75;1.42;;;15.60;97.30;;;;;;5097144;28;20484;-76
2022/10/22 05:20:40;;;;;;;5.53;1.50;;;15.60;97.20;;;;;;5095838;28;20824;-76
2022/10/22 05:23:06;;;;;;;8.98;1.50;;;15.60;97.40;;;;;;5095658;28;20020;-76
2022/10/22 05:25:36;;;;;;;11.07;1.58;;;15.60;97.50;;;;;;5097104;28;20503;-76
2022/10/22 05:28:02;;;;;;;9.63;1.55;;;15.70;97.40;;;;;;5096732;28;20027;-76
2022/10/22 05:30:28;;;;;;;8.15;1.45;;;15.70;97.40;;;;;;5095617;28;20020;-76
2022/10/22 05:32:53;;;;;;;8.52;1.35;;;15.70;97.30;;;;;;5096963;28;20095;-76
2022/10/22 05:35:19;;;;;;;8.32;1.40;;;15.60;97.40;;;;;;5097120;28;20020;-76
2022/10/22 05:37:44;;;;;;;7.97;1.42;;;15.70;97.30;;;;;;5095547;28;20028;-76
2022/10/22 05:40:10;;;;;;;5.80;1.33;;;15.60;97.40;;;;;;5097042;28;20028;-77
2022/10/22 05:42:36;;;;;;;7.93;1.30;;;15.70;97.60;;;;;;5096775;28;20032;-75
2022/10/22 05:45:02;;;;;;;5.85;1.20;;;15.70;97.60;;;;;;5095358;28;20030;-76
2022/10/22 05:47:30;;;;;;;6.05;1.55;;;15.70;97.70;;;;;;5095414;28;20074;-77
2022/10/22 05:49:56;;;;;;;6.82;1.60;;;15.70;97.50;;;;;;5097197;28;20101;-77
2022/10/22 05:52:22;;;;;;;7.95;1.38;;;15.80;97.70;;;;;;5096675;28;20028;-76
2022/10/22 05:54:48;;;;;;;7.93;1.08;;;15.80;97.70;;;;;;5096667;28;20512;-77
2022/10/22 05:57:14;;;;;;;7.18;1.50;;;15.80;97.60;;;;;;5098978;28;20049;-78
2022/10/22 05:59:39;;;;;;;5.90;1.23;;;15.80;97.50;;;;;;5100313;28;20441;-78
2022/10/22 06:02:07;;;;;;;6.18;1.40;;;15.80;97.50;;;;;;5098974;28;20035;-78
2022/10/22 06:04:33;;;;;;;4.82;1.35;;;15.80;97.60;;;;;;5098619;28;20031;-78
2022/10/22 06:06:58;;;;;;;8.85;1.30;;;15.90;97.70;;;;;;5100071;28;20488;-77
2022/10/22 06:09:34;;;;;;;8.05;1.50;;;15.90;97.60;;;;;;5099124;28;20031;-77
2022/10/22 06:12:00;;;;;;;4.88;1.20;;;15.90;97.40;;;;;;5100002;28;20024;-77
2022/10/22 06:14:27;;;;;;;5.90;1.40;;;15.80;97.50;;;;;;5098585;28;20054;-77
2022/10/22 06:16:53;;;;;;;8.05;1.35;;;15.80;97.60;;;;;;5100768;28;20044;-78
2022/10/22 06:19:20;;;;;;;9.95;1.88;;;15.80;97.60;;;;;;5098327;28;20048;-78
2022/10/22 06:21:47;;;;;;;10.88;1.50;;;15.80;97.70;;;;;;5097930;28;20039;-78
2022/10/22 06:24:13;;;;;;;8.95;1.40;;;15.80;97.90;;;;;;5099453;28;20035;-77
2022/10/22 06:26:40;;;;;;;7.95;1.42;;;15.80;98.00;;;;;;5098607;28;20054;-78
2022/10/22 06:29:06;;;;;;;8.57;1.40;;;15.80;97.90;;;;;;5097879;28;20103;-77
2022/10/22 06:31:41;;;;;;;8.80;1.48;;;15.90;98.00;;;;;;5098211;28;20020;-78
2022/10/22 06:34:10;;;;;;;10.55;1.70;;;15.90;98.10;;;;;;5098998;28;20020;-78
2022/10/22 06:36:36;;;;;;;5.70;1.40;;;15.90;98.10;;;;;;5099648;28;20450;-78
2022/10/22 06:39:02;;;;;;;11.13;1.70;;;15.80;97.90;;;;;;5098467;28;20536;-77
2022/10/22 06:41:28;;;;;;;9.43;1.83;;;15.90;98.10;;;;;;5098170;28;20028;-78
2022/10/22 06:43:54;;;;;;;15.00;2.25;;;15.90;98.20;;;;;;5099184;28;20056;-77
2022/10/22 06:46:21;;;;;;;10.57;1.95;;;15.80;98.10;;;;;;5098217;28;20435;-77
2022/10/22 06:49:01;;;;;;;10.02;1.98;;;15.90;98.30;;;;;;5099205;28;20032;-77
2022/10/22 06:51:27;;;;;;;11.80;2.10;;;15.80;98.10;;;;;;5099552;28;20055;-77
2022/10/22 06:53:55;;;;;;;8.48;2.25;;;15.80;98.30;;;;;;5099230;28;20021;-77
2022/10/22 06:56:23;;;;;;;11.95;2.15;;;15.90;98.40;;;;;;5099329;28;20020;-77
2022/10/22 06:58:50;;;;;;;9.80;2.20;;;15.90;98.40;;;;;;5098931;28;20016;-77
2022/10/22 07:01:17;;;;;;;7.70;2.45;;;15.90;98.50;;;;;;5098693;28;20036;-76
2022/10/22 07:03:43;;;;;;;10.60;2.53;;;15.90;98.50;;;;;;5098923;28;20020;-76
2022/10/22 07:06:11;;;;;;;10.45;2.30;;;15.90;98.50;;;;;;5098545;28;20034;-78
2022/10/22 07:08:38;;;;;;;12.93;2.78;;;15.90;98.70;;;;;;5098624;28;20027;-77
2022/10/22 07:11:06;;;;;;;11.48;2.75;;;16.00;98.70;;;;;;5097869;28;20806;-77
2022/10/22 07:13:31;;;;;;;11.13;2.33;;;16.00;98.60;;;;;;5098599;28;20494;-77
2022/10/22 07:15:57;;;;;;;11.32;2.70;;;16.00;98.80;;;;;;5098927;28;20122;-78
2022/10/22 07:18:23;;;;;;;13.57;3.13;;;16.00;98.60;;;;;;5097498;28;20040;-79
2022/10/22 07:20:49;;;;;;;11.05;2.17;;;16.00;98.70;;;;;;5098672;28;20034;-78
2022/10/22 07:23:14;;;;;;;10.98;2.90;;;16.00;98.90;;;;;;5097454;28;20038;-79
2022/10/22 07:25:40;;;;;;;8.05;2.22;;;16.10;98.80;;;;;;5098779;28;20430;-79
2022/10/22 07:28:06;;;;;;;17.60;3.05;;;16.10;98.80;;;;;;5097104;28;20511;-79
2022/10/22 07:30:33;;;;;;;12.68;2.70;;;16.10;98.80;;;;;;5098583;28;20024;-79
2022/10/22 07:32:58;;;;;;;10.10;2.63;;;16.10;98.80;;;;;;5098332;28;20073;-79
2022/10/22 07:35:24;;;;;;;14.48;2.85;;;16.10;98.80;;;;;;5098426;28;20028;-80
2022/10/22 07:37:50;;;;;;;16.60;2.78;;;16.10;98.70;;;;;;5098206;28;20024;-78
2022/10/22 07:40:15;;;;;;;16.38;2.83;;;16.10;98.80;;;;;;5098478;28;20081;-78
2022/10/22 07:42:41;;;;;;;11.35;2.55;;;16.10;98.80;;;;;;5096666;28;20100;-78
2022/10/22 07:45:07;;;;;;;15.23;2.78;;;16.10;98.80;;;;;;5096740;28;20028;-77
2022/10/22 07:47:33;;;;;;;12.32;2.83;;;16.10;98.70;;;;;;5096878;28;20028;-76
2022/10/22 07:49:58;;;;;;;15.55;3.00;;;16.10;98.90;;;;;;5098338;28;20038;-77
2022/10/22 07:52:24;;;;;;;14.85;3.42;;;16.10;98.90;;;;;;5098067;28;20045;-77
2022/10/22 07:54:50;;;;;;;10.68;2.50;;;16.20;99.10;;;;;;5098281;28;20024;-77
2022/10/22 07:57:15;;;;;;;14.35;2.90;;;16.20;99.10;;;;;;5097959;28;20024;-78
2022/10/22 07:59:41;;;;;;;21.98;4.38;;;16.30;99.20;;;;;;5096379;28;20017;-78
2022/10/22 08:02:06;;;;;;;15.45;3.60;;;16.30;99.20;;;;;;5096630;28;20028;-78
2022/10/22 08:04:32;;;;;;;11.75;2.85;;;16.30;99.30;;;;;;5096962;28;20032;-79
2022/10/22 08:06:59;;;;;;;13.00;2.75;;;16.40;99.10;;;;;;5096762;28;20024;-79
2022/10/22 08:09:24;;;;;;;10.82;2.88;;;16.30;99.20;;;;;;5097826;28;20366;-79
2022/10/22 08:11:50;;;;;;;13.45;3.28;;;16.40;99.30;;;;;;5096381;28;20097;-77
2022/10/22 08:14:16;;;;;;;13.15;2.97;;;16.40;99.40;;;;;;5097307;28;20035;-77
2022/10/22 08:16:41;;;;;;;15.88;3.05;;;16.40;99.50;;;;;;5096070;28;20063;-77
2022/10/22 08:19:07;;;;;;;10.25;3.13;;;16.40;99.50;;;;;;5096490;28;20024;-80
2022/10/22 08:21:33;;;;;;;11.40;2.75;;;16.50;99.50;;;;;;5097537;28;20020;-77
2022/10/22 08:23:58;;;;;;;12.23;2.95;;;16.50;99.60;;;;;;5096512;28;20024;-77
2022/10/22 08:26:24;;;;;;;10.35;2.80;;;16.50;99.50;;;;;;5095538;28;20396;-77
2022/10/22 08:28:49;;;;;;;13.13;3.17;;;16.50;99.50;;;;;;5095509;28;20110;-77
2022/10/22 08:31:15;;;;;;;10.93;2.78;;;16.50;99.60;;;;;;5095868;28;20035;-78
2022/10/22 08:33:41;;;;;;;10.32;3.13;;;16.60;99.60;;;;;;5097016;28;20054;-78
2022/10/22 08:36:07;;;;;;;12.48;2.83;;;16.60;99.60;;;;;;5097250;28;20016;-77
2022/10/22 08:38:34;;;;;;;11.13;2.80;;;16.60;99.60;;;;;;5096374;28;20031;-78
2022/10/22 08:41:15;;;;;;;9.52;3.20;;;16.60;99.50;;;;;;5096120;28;20041;-78
2022/10/22 08:43:46;;;;;;;11.50;2.70;;;16.70;99.60;;;;;;5095859;28;20024;-79
2022/10/22 08:46:30;;;;;;;12.35;2.67;;;16.70;99.50;;;;;;5082973;28;20024;-78
2022/10/22 08:49:07;;;;;;;9.30;3.50;;;16.80;99.80;;;;;;5096242;28;20040;-78
2022/10/22 08:51:39;;;;;;;11.25;2.50;;;16.90;99.50;;;;;;5097776;28;20020;-78
2022/10/22 08:54:30;;;;;;;8.80;2.38;;;17.00;99.70;;;;;;5095966;28;20028;-73
2022/10/22 08:57:15;;;;;;;11.57;2.60;;;17.00;99.60;;;;;;5096664;28;20074;-78
2022/10/22 09:00:00;;;;;;;9.00;2.42;;;17.10;99.20;;;;;;5096801;28;20028;-74
2022/10/22 09:03:04;;;;;;;7.53;2.42;;;17.10;99.30;;;;;;5095694;28;20036;-75
2022/10/22 09:05:42;;;;;;;8.60;2.60;;;17.20;99.00;;;;;;5095973;28;20393;-69
2022/10/22 09:08:14;;;;;;;8.77;2.58;;;17.20;99.00;;;;;;5095676;28;20031;-72
2022/10/22 09:10:45;;;;;;;9.60;2.38;;;17.20;98.90;;;;;;5097230;28;20043;-72
2022/10/22 09:13:14;;;;;;;9.95;3.38;;;17.20;98.90;;;;;;5095393;28;20056;-71
2022/10/22 09:15:40;;;;;;;9.05;3.08;;;17.20;99.00;;;;;;5096975;28;20043;-72
2022/10/22 09:18:36;;;;;;;10.20;2.78;;;17.20;99.00;;;;;;5095306;28;20028;-71
2022/10/22 09:21:09;;;;;;;10.63;2.63;;;17.20;98.90;;;;;;5096759;28;20028;-72
2022/10/22 09:23:46;;;;;;;8.88;2.58;;;17.20;99.20;;;;;;5095697;28;20032;-82
2022/10/22 09:26:14;;;;;;;9.25;2.40;;;17.30;99.00;;;;;;5095811;28;20028;-71
2022/10/22 09:28:41;;;;;;;5.97;2.35;;;17.30;99.20;;;;;;5095083;28;20555;-82
2022/10/22 09:31:14;;;;;;;10.20;2.88;;;17.40;99.40;;;;;;5096123;28;20046;-71
2022/10/22 09:33:41;;;;;;;9.57;2.47;;;17.50;99.20;;;;;;5101188;28;20393;-72
2022/10/22 09:36:14;;;;;;;7.68;2.22;;;17.50;99.20;;;;;;5098271;28;20115;-74
2022/10/22 09:38:45;;;;;;;11.18;3.75;;;17.60;99.10;;;;;;5098223;28;20028;-72
2022/10/22 09:41:11;;;;;;;10.40;2.72;;;17.70;99.50;;;;;;5097665;28;20035;-72
2022/10/22 09:43:37;;;;;;;7.32;2.38;;;17.70;98.70;;;;;;5099014;28;20024;-72
2022/10/22 09:46:13;;;;;;;12.98;3.17;;;17.70;98.90;;;;;;5098348;28;20032;-75
2022/10/22 09:48:41;;;;;;;8.57;2.47;;;17.80;98.60;;;;;;5109898;28;20624;-74
2022/10/22 09:51:17;;;;;;;8.70;2.63;;;17.80;98.80;;;;;;5099821;28;20028;-73
2022/10/22 09:53:46;;;;;;;7.93;2.25;;;17.90;98.80;;;;;;5098526;28;20428;-73
2022/10/22 09:56:22;;;;;;;8.23;2.30;;;17.90;98.70;;;;;;5097874;28;20020;-73
2022/10/22 09:58:50;;;;;;;9.05;2.33;;;17.90;98.80;;;;;;5099027;28;20112;-72
2022/10/22 10:01:20;;;;;;;9.38;2.33;;;18.00;98.70;;;;;;5096792;28;20028;-73
2022/10/22 10:03:48;;;;;;;12.25;2.30;;;18.00;98.60;;;;;;5098110;28;20028;-74
2022/10/22 10:06:17;;;;;;;7.28;1.90;;;18.10;98.60;;;;;;5101727;28;20024;-73
2022/10/22 10:08:43;;;;;;;6.28;1.67;;;18.10;98.20;;;;;;5096822;28;20020;-76
2022/10/22 10:11:17;;;;;;;7.55;1.58;;;18.10;98.10;;;;;;5099787;28;20024;-75
2022/10/22 10:13:51;;;;;;;7.10;1.98;;;18.10;98.20;;;;;;5099002;28;20059;-78
2022/10/22 10:16:43;;;;;;;9.07;2.80;;;18.20;98.40;;;;;;5097656;28;20051;-74
2022/10/22 10:19:19;;;;;;;7.30;1.75;;;18.20;98.10;;;;;;5097095;28;20396;-76
2022/10/22 10:21:50;;;;;;;8.25;1.73;;;18.20;98.10;;;;;;5099700;28;20060;-73
2022/10/22 10:24:57;;;;;;;9.35;2.05;;;18.30;98.10;;;;;;5098340;28;20040;-72
2022/10/22 10:27:43;;;;;;;8.82;1.83;;;18.30;98.20;;;;;;5068925;28;20548;-74
2022/10/22 10:30:17;;;;;;;6.05;1.80;;;18.40;98.10;;;;;;5088307;28;20024;-71
2022/10/22 10:32:48;;;;;;;8.75;1.88;;;18.50;97.90;;;;;;5096478;28;20016;-70
2022/10/22 10:35:30;;;;;;;8.38;1.70;;;18.50;97.80;;;;;;5099201;28;20016;-71
2022/10/22 10:38:22;;;;;;;7.50;1.75;;;18.60;97.90;;;;;;5098934;28;20112;-71
2022/10/22 10:41:04;;;;;;;9.13;1.60;;;18.60;98.00;;;;;;5070752;28;20123;-71
2022/10/22 10:44:04;;;;;;;4.90;1.50;;;18.70;97.90;;;;;;5098401;28;20069;-71
2022/10/22 10:47:07;;;;;;;7.97;1.90;;;18.70;97.70;;;;;;5098465;28;20101;-71
2022/10/22 10:49:35;;;;;;;6.95;1.33;;;18.70;97.70;;;;;;5086812;28;20034;-71
2022/10/22 10:52:19;;;;;;;6.82;1.40;;;18.70;97.70;;;;;;5097789;28;20395;-71
2022/10/22 10:55:28;;;;;;;6.97;1.67;;;18.80;97.60;;;;;;5098888;28;20038;-70
2022/10/22 10:58:38;;;;;;;8.95;1.40;;;18.80;97.60;;;;;;5096813;28;20503;-71
2022/10/22 11:01:53;;;;;;;9.07;1.83;;;18.90;97.60;;;;;;5061093;28;20044;-71
2022/10/22 11:04:28;;;;;;;6.97;1.30;;;18.90;97.50;;;;;;5097083;28;20009;-71
2022/10/22 11:06:58;;;;;;;8.55;1.70;;;19.00;97.30;;;;;;5099074;28;20020;-71
2022/10/22 11:09:29;;;;;;;7.63;1.55;;;18.90;96.80;;;;;;5097830;28;20073;-71
2022/10/22 11:12:01;;;;;;;7.90;1.60;;;19.00;96.70;;;;;;5097861;28;20023;-71
2022/10/22 11:14:49;;;;;;;7.30;1.65;;;19.00;96.80;;;;;;5097180;28;20105;-72
2022/10/22 11:17:17;;;;;;;8.90;1.70;;;19.00;96.80;;;;;;5095951;28;20040;-72
2022/10/22 11:20:02;;;;;;;7.40;1.60;;;19.10;96.90;;;;;;5097323;28;20023;-72
2022/10/22 11:22:34;;;;;;;5.68;1.25;;;19.10;97.10;;;;;;5093475;28;20848;-71
2022/10/22 11:25:04;;;;;;;6.18;1.30;;;19.20;96.80;;;;;;5096909;28;20042;-71
2022/10/22 11:27:42;;;;;;;7.70;1.55;;;19.30;96.60;;;;;;5094389;28;20031;-71
2022/10/22 11:30:13;;;;;;;8.10;1.65;;;19.30;96.60;;;;;;5095814;28;20024;-72
2022/10/22 11:32:42;;;;;;;7.68;1.20;;;19.40;96.70;;;;;;5096659;28;20012;-70
2022/10/22 11:35:13;;;;;;;6.05;1.60;;;19.50;96.30;;;;;;5098474;28;20366;-70
2022/10/22 11:37:41;;;;;;;7.47;1.20;;;19.60;96.10;;;;;;5098156;28;20064;-70
2022/10/22 11:40:13;;;;;;;4.28;1.15;;;19.60;95.80;;;;;;5098278;28;20034;-74
2022/10/22 11:42:43;;;;;;;7.22;1.30;;;19.70;95.90;;;;;;5097960;28;20112;-70
2022/10/22 11:45:12;;;;;;;5.50;1.10;;;19.80;95.50;;;;;;5097174;28;20507;-79
2022/10/22 11:48:06;;;;;;;5.82;1.67;;;19.80;95.10;;;;;;5098021;28;20030;-82
2022/10/22 11:50:56;;;;;;;5.43;1.00;;;19.80;95.50;;;;;;5098131;28;20095;-73
2022/10/22 11:53:24;;;;;;;4.63;0.85;;;19.80;95.20;;;;;;5097848;28;20012;-73
2022/10/22 11:55:52;;;;;;;6.05;1.08;;;19.80;95.00;;;;;;5096887;28;20028;-72
2022/10/22 11:58:38;;;;;;;5.47;1.13;;;19.80;94.50;;;;;;5097470;28;20069;-72
2022/10/22 12:01:06;;;;;;;6.95;1.30;;;19.80;95.00;;;;;;5098271;28;20020;-72
2022/10/22 12:03:32;;;;;;;6.72;1.35;;;19.80;94.50;;;;;;5097741;28;20485;-72
2022/10/22 12:06:03;;;;;;;5.63;1.25;;;19.70;94.30;;;;;;5096645;28;20028;-73
2022/10/22 12:08:31;;;;;;;4.70;1.10;;;19.60;94.40;;;;;;5097518;28;20103;-74
2022/10/22 12:11:05;;;;;;;5.20;1.30;;;19.60;94.10;;;;;;5098059;28;20154;-76
2022/10/22 12:13:49;;;;;;;8.60;1.10;;;19.60;94.00;;;;;;5096083;28;20031;-82
2022/10/22 12:16:15;;;;;;;5.32;1.20;;;19.60;94.50;;;;;;5098385;28;20540;-72
2022/10/22 12:18:43;;;;;;;5.25;1.30;;;19.60;93.90;;;;;;5097593;28;20024;-72
2022/10/22 12:21:16;;;;;;;3.90;0.90;;;19.70;93.90;;;;;;5097490;28;20031;-81
2022/10/22 12:23:43;;;;;;;4.45;1.13;;;19.70;94.10;;;;;;5096251;28;20034;-80
2022/10/22 12:26:27;;;;;;;5.13;1.33;;;19.80;94.00;;;;;;5097546;28;20025;-73
2022/10/22 12:28:57;;;;;;;6.40;1.27;;;19.80;94.50;;;;;;5097177;28;20024;-75
2022/10/22 12:31:23;;;;;;;4.45;1.10;;;19.90;93.90;;;;;;5097368;28;20054;-75
2022/10/22 12:33:56;;;;;;;4.40;1.08;;;19.90;93.80;;;;;;5097364;28;20081;-75
2022/10/22 12:36:21;;;;;;;2.45;0.80;;;19.90;93.70;;;;;;5096262;28;20108;-80
2022/10/22 12:38:47;;;;;;;2.92;0.80;;;19.90;93.40;;;;;;5094796;28;20059;-79
2022/10/22 12:41:13;;;;;;;3.45;1.05;;;20.00;93.10;;;;;;5097398;28;20016;-79
2022/10/22 12:43:38;;;;;;;4.95;0.98;;;19.90;92.80;;;;;;5096528;28;20024;-74
2022/10/22 12:46:12;;;;;;;5.78;0.95;;;20.00;92.50;;;;;;5096885;28;20028;-76
2022/10/22 12:48:41;;;;;;;4.65;0.80;;;20.00;92.90;;;;;;5094444;28;20123;-72
2022/10/22 12:51:10;;;;;;;4.00;1.10;;;20.00;92.10;;;;;;5094946;28;20473;-73
2022/10/22 12:53:42;;;;;;;3.25;0.80;;;20.10;92.30;;;;;;5094366;28;20020;-74
2022/10/22 12:56:19;;;;;;;3.33;0.82;;;20.10;92.40;;;;;;5095016;28;20066;-73
2022/10/22 12:58:51;;;;;;;5.43;1.05;;;20.10;92.40;;;;;;5096971;28;20042;-69
2022/10/22 13:01:17;;;;;;;3.73;1.03;;;20.10;91.70;;;;;;5085717;28;20455;-69